VTSH  Songkhla Airport

Add Bookmark

Thailand

Status IATA
Operational SGZ
Latitude Longitude
7° 11' 11" N 100° 36' 28" E
7.186560 100.608002
Local (DST + 7) UTC (GMT + 7)
Dec 22, 2014 02:49 Dec 22, 2014 07:49
Sunrise-Sunset Local UTC
Begin Civil Twilight 06:01 23:01
Sunrise 06:23 23:23
Sunset 06:08 11:08
End Civil Twilight 06:31 11:31

Current Weather

METAR Observed MVFR
VTSH 220700Z 09004KT 8000 FEW018CB SCT120 BKN300 30/25 Q1008 A2977 CB N Mon, Dec 22, 2014 @ 07:00 UTC
(49 Minutes ago)
Marginal Visual Flight Rules
Wind Visibility Clouds Conditions
090° at 4 knots (7 kph) 8000 meters
  • Few at 1,800' AGL
  • Scattered at 12,000' AGL
  • Broken at 30,000' AGL
  • No significant weather
Temperatures Readings Precipitation
Current Temp 30°C (86°F)
Dewpoint 25°C (77°F)
Heat Index 36°C (97°F)
Humidity 75%
Altimeter 29.76"Hg
Sea Level Pressure 1008mb
Field Elevation 16.4'
None Recorded

Additional weather within a 92.6km radius of VTSH

Map ICAO Location
VTSS 36.9km S (220°)

24 Hour Weather History

Loading
-

24 Hour Weather Graphs

Loading
-

CheckWX.com is intended as a tool to help pilots better visualize weather data. It is not intended as a substitute for an official weather briefing obtained from a Flight Service Station. CheckWX.com does not meet the FAA requirements for an official pre-flight weather briefing. Therefore, it's important that pilots still call and obtain an official FSS pre-flight weather briefing.